createdAt,value
2023-11-04T00:01:07.733Z,97880.51
2023-11-04T00:03:13.413Z,97884.47
2023-11-04T00:05:08.550Z,97885.23
2023-11-04T00:07:01.731Z,97888.60
2023-11-04T00:08:55.195Z,97890.92
2023-11-04T00:10:51.094Z,97892.77
2023-11-04T00:12:44.207Z,97896.84
2023-11-04T00:14:38.341Z,97902.41
2023-11-04T00:16:31.799Z,97908.27
2023-11-04T00:18:24.979Z,97912.09
2023-11-04T00:20:18.397Z,97910.88
2023-11-04T00:22:11.409Z,97917.66
2023-11-04T00:24:05.818Z,97919.28
2023-11-04T00:25:58.895Z,97920.74
2023-11-04T00:27:51.983Z,97921.13
2023-11-04T00:29:45.208Z,97920.74
2023-11-04T00:31:38.817Z,97922.31
2023-11-04T00:33:32.916Z,97919.34
2023-11-04T00:35:26.714Z,97921.77
2023-11-04T00:37:22.248Z,97927.36
2023-11-04T00:39:16.138Z,97930.02
2023-11-04T00:41:10.154Z,97930.45
2023-11-04T00:43:03.743Z,97932.14
2023-11-04T00:44:56.928Z,97931.59
2023-11-04T00:46:49.931Z,97936.04
2023-11-04T00:48:43.055Z,97936.64
2023-11-04T00:50:38.352Z,97941.95
2023-11-04T00:52:31.946Z,97945.80
2023-11-04T00:54:25.046Z,97949.02
2023-11-04T00:56:18.068Z,97955.20
2023-11-04T00:58:11.100Z,97953.61
2023-11-04T01:00:06.512Z,97954.38
2023-11-04T01:01:59.655Z,97956.61
2023-11-04T01:03:52.748Z,97961.93
2023-11-04T01:05:49.032Z,97960.69
2023-11-04T01:07:42.086Z,97962.41
2023-11-04T01:09:36.595Z,97966.88
2023-11-04T01:11:31.254Z,97968.94
2023-11-04T01:13:26.163Z,97968.08
2023-11-04T01:15:19.338Z,97968.84
2023-11-04T01:17:12.456Z,97971.23
2023-11-04T01:19:05.966Z,97974.17
2023-11-04T01:20:59.376Z,97981.96
2023-11-04T01:22:52.425Z,97981.77
2023-11-04T01:24:45.455Z,97981.94
2023-11-04T01:26:38.530Z,97987.04
2023-11-04T01:28:31.704Z,97991.16
2023-11-04T01:30:24.787Z,97993.72
2023-11-04T01:32:18.401Z,97991.27
2023-11-04T01:34:12.775Z,97993.13
2023-11-04T01:36:06.612Z,97995.30
2023-11-04T01:37:59.626Z,97993.27
2023-11-04T01:39:55.728Z,97998.02
2023-11-04T01:41:48.974Z,97996.89
2023-11-04T01:43:43.566Z,98003.28
2023-11-04T01:45:36.654Z,97999.77
2023-11-04T01:47:29.774Z,98002.05
2023-11-04T01:49:23.081Z,98007.85
2023-11-04T01:51:17.115Z,98005.85
2023-11-04T01:53:10.334Z,98008.98
2023-11-04T01:55:04.347Z,98011.81
2023-11-04T01:56:57.477Z,98011.11
2023-11-04T01:58:52.433Z,98018.84
2023-11-04T02:00:46.267Z,98021.48
2023-11-04T02:02:40.188Z,98029.35
2023-11-04T02:04:33.366Z,98027.67
2023-11-04T02:06:26.806Z,98029.96
2023-11-04T02:08:20.334Z,98030.08
2023-11-04T02:10:14.868Z,98033.48
2023-11-04T02:12:08.035Z,98032.14
2023-11-04T02:14:01.283Z,98033.27
2023-11-04T02:15:54.470Z,98033.16
2023-11-04T02:17:47.810Z,98037.89
2023-11-04T02:19:41.022Z,98037.57
2023-11-04T02:21:34.650Z,98039.73
2023-11-04T02:23:28.375Z,98040.87
2023-11-04T02:25:21.377Z,98040.17
2023-11-04T02:27:14.529Z,98041.73
2023-11-04T02:29:08.557Z,98047.45
2023-11-04T02:31:01.673Z,98047.98
2023-11-04T02:32:54.827Z,98049.17
2023-11-04T02:34:48.154Z,98052.76
2023-11-04T02:36:41.195Z,98055.48
2023-11-04T02:38:34.423Z,98052.05
2023-11-04T02:40:27.483Z,98053.20
2023-11-04T02:42:20.506Z,98057.34
2023-11-04T02:44:13.672Z,98059.41
2023-11-04T02:46:06.651Z,98062.77
2023-11-04T02:47:59.792Z,98067.93
2023-11-04T02:49:53.340Z,98071.02
2023-11-04T02:51:46.454Z,98074.00
2023-11-04T02:53:40.460Z,98076.22
2023-11-04T02:55:33.520Z,98076.23
2023-11-04T02:57:26.930Z,98077.58
2023-11-04T02:59:20.126Z,98081.97
2023-11-04T03:01:13.200Z,98084.20
2023-11-04T03:03:06.407Z,98087.83
2023-11-04T03:05:00.098Z,98089.30
2023-11-04T03:06:53.622Z,98094.34
2023-11-04T03:08:46.709Z,98098.23
2023-11-04T03:10:40.233Z,98097.93
2023-11-04T03:12:33.370Z,98098.80
2023-11-04T03:14:27.089Z,98099.02
2023-11-04T03:16:21.510Z,98101.19
2023-11-04T03:18:15.490Z,98100.91
2023-11-04T03:20:09.696Z,98107.52
2023-11-04T03:22:02.774Z,98107.84
2023-11-04T03:23:55.825Z,98107.95
2023-11-04T03:25:48.877Z,98114.61
2023-11-04T03:27:42.870Z,98116.23
2023-11-04T03:29:35.957Z,98116.67
2023-11-04T03:31:29.768Z,98118.80
2023-11-04T03:33:22.848Z,98121.82
2023-11-04T03:35:16.381Z,98126.18
2023-11-04T03:37:09.850Z,98132.89
2023-11-04T03:39:02.999Z,98134.09
2023-11-04T03:40:56.154Z,98135.34
2023-11-04T03:42:49.237Z,98136.73
2023-11-04T03:44:42.361Z,98144.98
2023-11-04T03:46:36.021Z,98145.44
2023-11-04T03:48:29.401Z,98149.09
2023-11-04T03:50:23.037Z,98147.73
2023-11-04T03:52:15.989Z,98153.25
2023-11-04T03:54:08.976Z,98155.64
2023-11-04T03:56:02.918Z,98158.99
2023-11-04T03:57:55.996Z,98163.94
2023-11-04T03:59:49.422Z,98164.59
2023-11-04T04:01:42.577Z,98163.00
2023-11-04T04:03:35.562Z,98169.51
2023-11-04T04:05:28.617Z,98175.47
2023-11-04T04:07:21.725Z,98175.67
2023-11-04T04:09:14.781Z,98179.52
2023-11-04T04:11:07.900Z,98183.26
2023-11-04T04:13:00.925Z,98180.70
2023-11-04T04:14:53.926Z,98183.31
2023-11-04T04:16:47.232Z,98185.90
2023-11-04T04:18:40.317Z,98190.35
2023-11-04T04:20:33.585Z,98188.11
2023-11-04T04:22:26.642Z,98190.27
2023-11-04T04:24:19.994Z,98190.88
2023-11-04T04:26:22.413Z,98193.67
2023-11-04T04:28:15.932Z,98192.52
2023-11-04T04:30:09.703Z,98194.84
2023-11-04T04:32:02.754Z,98198.23
2023-11-04T04:33:55.934Z,98203.19
2023-11-04T04:35:49.058Z,98205.42
2023-11-04T04:37:42.122Z,98209.10
2023-11-04T04:39:35.421Z,98208.39
2023-11-04T04:41:29.342Z,98209.25
2023-11-04T04:43:22.329Z,98211.41
2023-11-04T04:45:15.533Z,98215.48
2023-11-04T04:47:08.538Z,98218.77
2023-11-04T04:49:01.682Z,98221.48
2023-11-04T04:50:56.039Z,98223.65
2023-11-04T04:52:49.068Z,98222.73
2023-11-04T04:54:42.218Z,98227.07
2023-11-04T04:56:35.578Z,98229.08
2023-11-04T04:58:29.244Z,98232.70
2023-11-04T05:00:23.745Z,98236.81
2023-11-04T05:02:16.779Z,98234.14
2023-11-04T05:04:10.291Z,98232.84
2023-11-04T05:06:05.026Z,98237.48
2023-11-04T05:07:57.905Z,98238.30
2023-11-04T05:09:50.973Z,98241.21
2023-11-04T05:11:44.287Z,98243.00
2023-11-04T05:13:37.748Z,98246.63
2023-11-04T05:15:30.854Z,98245.52
2023-11-04T05:17:24.029Z,98248.65
2023-11-04T05:19:17.597Z,98252.04
2023-11-04T05:21:10.981Z,98255.23
2023-11-04T05:23:04.020Z,98259.23
2023-11-04T05:24:57.047Z,98263.95
2023-11-04T05:26:50.119Z,98265.95
2023-11-04T05:28:43.219Z,98268.04
2023-11-04T05:30:36.767Z,98272.58
2023-11-04T05:32:29.938Z,98274.55
2023-11-04T05:34:23.221Z,98278.02
2023-11-04T05:36:20.006Z,98284.08
2023-11-04T05:38:13.029Z,98289.47
2023-11-04T05:40:06.803Z,98291.29
2023-11-04T05:41:59.848Z,98296.00
2023-11-04T05:43:53.633Z,98295.53
2023-11-04T05:45:47.510Z,98298.61
2023-11-04T05:47:40.443Z,98301.90
2023-11-04T05:49:33.541Z,98304.67
2023-11-04T05:51:27.074Z,98305.87
2023-11-04T05:53:20.311Z,98309.04
2023-11-04T05:55:13.767Z,98309.30
2023-11-04T05:57:06.758Z,98313.29
2023-11-04T05:58:59.777Z,98315.38
2023-11-04T06:00:53.028Z,98316.70
2023-11-04T06:02:46.943Z,98321.83
2023-11-04T06:04:40.275Z,98327.88
2023-11-04T06:06:33.596Z,98335.17
2023-11-04T06:08:27.373Z,98339.05
2023-11-04T06:10:20.421Z,98340.37
2023-11-04T06:12:16.089Z,98347.14
2023-11-04T06:14:09.808Z,98347.09
2023-11-04T06:16:03.983Z,98348.70
2023-11-04T06:17:57.085Z,98356.33
2023-11-04T06:19:50.274Z,98359.08
2023-11-04T06:21:43.451Z,98356.13
2023-11-04T06:23:36.591Z,98358.89
2023-11-04T06:25:29.941Z,98356.66
2023-11-04T06:27:23.003Z,98361.81
2023-11-04T06:29:17.835Z,98360.27
2023-11-04T06:31:11.656Z,98359.39
2023-11-04T06:33:04.808Z,98366.48
2023-11-04T06:34:59.605Z,98366.79
2023-11-04T06:36:52.996Z,98365.30
2023-11-04T06:38:46.115Z,98372.27
2023-11-04T06:40:39.672Z,98370.04
2023-11-04T06:42:32.651Z,98373.77
2023-11-04T06:44:25.680Z,98368.20
2023-11-04T06:46:19.441Z,98370.52
2023-11-04T06:48:12.725Z,98376.27
2023-11-04T06:50:06.873Z,98377.69
2023-11-04T06:51:59.959Z,98384.07
2023-11-04T06:53:56.660Z,98386.52
2023-11-04T06:55:50.121Z,98390.65
2023-11-04T06:57:43.092Z,98391.70
2023-11-04T06:59:38.061Z,98393.60
2023-11-04T07:01:31.172Z,98398.95
2023-11-04T07:03:24.412Z,98404.05
2023-11-04T07:05:17.730Z,98403.84
2023-11-04T07:07:10.783Z,98410.25
2023-11-04T07:09:06.117Z,98413.75
2023-11-04T07:11:00.619Z,98421.56
2023-11-04T07:12:54.386Z,98421.54
2023-11-04T07:14:47.509Z,98421.44
2023-11-04T07:16:40.537Z,98418.16
2023-11-04T07:18:35.360Z,98422.42
2023-11-04T07:20:29.261Z,98421.36
2023-11-04T07:22:25.629Z,98428.52
2023-11-04T07:24:20.214Z,98425.34
2023-11-04T07:26:13.268Z,98427.24
2023-11-04T07:28:07.810Z,98427.98
2023-11-04T07:30:01.729Z,98430.48
2023-11-04T07:31:54.775Z,98431.85
2023-11-04T07:33:48.516Z,98428.23
2023-11-04T07:35:41.589Z,98430.54
2023-11-04T07:37:34.849Z,98436.23
2023-11-04T07:39:31.182Z,98439.02
2023-11-04T07:41:24.224Z,98443.30
2023-11-04T07:43:18.349Z,98439.05
2023-11-04T07:45:15.494Z,98437.66
2023-11-04T07:47:10.747Z,98439.65
2023-11-04T07:49:04.300Z,98443.73
2023-11-04T07:50:57.371Z,98441.89
2023-11-04T07:52:56.701Z,98442.45
2023-11-04T07:54:52.346Z,98441.67
2023-11-04T07:56:45.730Z,98444.68
2023-11-04T07:58:38.792Z,98441.20
2023-11-04T08:00:32.079Z,98444.84
2023-11-04T08:02:25.441Z,98443.04
2023-11-04T08:04:18.601Z,98446.37
2023-11-04T08:06:11.765Z,98445.86
2023-11-04T08:08:04.964Z,98446.10
2023-11-04T08:10:00.389Z,98451.27
2023-11-04T08:11:53.618Z,98449.05
2023-11-04T08:13:46.688Z,98442.02
2023-11-04T08:15:40.049Z,98444.89
2023-11-04T08:17:34.330Z,98442.65
2023-11-04T08:19:27.595Z,98436.77
2023-11-04T08:21:20.756Z,98439.26
2023-11-04T08:23:13.765Z,98445.20
2023-11-04T08:25:10.998Z,98446.38
2023-11-04T08:27:04.369Z,98445.99
2023-11-04T08:28:57.426Z,98445.55
2023-11-04T08:30:53.100Z,98446.79
2023-11-04T08:32:48.125Z,98444.13
2023-11-04T08:34:41.497Z,98444.34
2023-11-04T08:36:35.829Z,98447.74
2023-11-04T08:38:29.230Z,98447.42
2023-11-04T08:40:22.490Z,98442.84
2023-11-04T08:42:15.538Z,98443.01
2023-11-04T08:44:08.988Z,98443.98
2023-11-04T08:46:02.092Z,98442.80
2023-11-04T08:47:55.462Z,98444.74
2023-11-04T08:49:49.093Z,98446.23
2023-11-04T08:51:42.243Z,98448.10
2023-11-04T08:53:35.271Z,98452.37
2023-11-04T08:55:28.490Z,98446.79
2023-11-04T08:57:21.676Z,98453.16
2023-11-04T08:59:17.499Z,98453.80
2023-11-04T09:01:11.499Z,98452.86
2023-11-04T09:03:04.907Z,98453.46
2023-11-04T09:05:05.246Z,98449.66
2023-11-04T09:07:01.023Z,98444.39
2023-11-04T09:08:56.622Z,98446.46
2023-11-04T09:10:50.043Z,98451.83
2023-11-04T09:12:43.101Z,98450.93
2023-11-04T09:14:37.671Z,98448.27
2023-11-04T09:16:30.723Z,98449.45
2023-11-04T09:18:24.039Z,98455.73
2023-11-04T09:20:17.140Z,98456.02
2023-11-04T09:22:10.237Z,98457.28
2023-11-04T09:24:03.543Z,98453.46
2023-11-04T09:25:56.586Z,98453.46
2023-11-04T09:27:50.298Z,98456.30
2023-11-04T09:29:43.443Z,98456.75
2023-11-04T09:31:37.918Z,98455.27
2023-11-04T09:33:33.051Z,98456.21
2023-11-04T09:35:26.434Z,98457.08
2023-11-04T09:37:19.393Z,98456.48
2023-11-04T09:39:13.776Z,98453.66
2023-11-04T09:41:07.399Z,98451.41
2023-11-04T09:43:01.586Z,98449.99
2023-11-04T09:44:56.614Z,98442.75
2023-11-04T09:46:58.304Z,98442.91
2023-11-04T09:48:52.978Z,98439.20
2023-11-04T09:50:46.212Z,98437.13
2023-11-04T09:52:41.855Z,98434.73
2023-11-04T09:54:36.232Z,98435.06
2023-11-04T09:56:30.056Z,98430.00
2023-11-04T09:58:23.440Z,98424.86
2023-11-04T10:00:19.471Z,98422.48
2023-11-04T10:02:13.590Z,98422.58
2023-11-04T10:04:07.102Z,98414.77
2023-11-04T10:06:00.453Z,98416.26
2023-11-04T10:07:53.502Z,98415.64
2023-11-04T10:09:46.584Z,98417.23
2023-11-04T10:11:40.009Z,98416.67
2023-11-04T10:13:33.160Z,98413.50
2023-11-04T10:15:26.792Z,98415.56
2023-11-04T10:17:20.190Z,98416.20
2023-11-04T10:19:17.197Z,98415.25
2023-11-04T10:21:10.612Z,98417.35
2023-11-04T10:23:04.251Z,98413.86
2023-11-04T10:25:01.125Z,98414.70
2023-11-04T10:26:54.242Z,98411.02
2023-11-04T10:28:48.335Z,98406.50
2023-11-04T10:30:41.802Z,98402.25
2023-11-04T10:32:38.149Z,98401.27
2023-11-04T10:34:36.181Z,98398.26
2023-11-04T10:36:32.602Z,98396.77
2023-11-04T10:38:27.118Z,98401.41
2023-11-04T10:40:22.387Z,98401.45
2023-11-04T10:42:16.880Z,98402.02
2023-11-04T10:44:37.983Z,98401.39
2023-11-04T10:46:59.810Z,98394.52
2023-11-04T10:49:06.165Z,98394.89
2023-11-04T10:51:26.333Z,98387.86
2023-11-04T10:53:46.751Z,98385.69
2023-11-04T10:56:20.147Z,98381.31
2023-11-04T10:58:23.745Z,98389.14
2023-11-04T11:00:21.375Z,98388.23
2023-11-04T11:02:15.679Z,98385.23
2023-11-04T11:04:10.224Z,98386.28
2023-11-04T11:06:05.639Z,98379.64
2023-11-04T11:07:59.147Z,98380.96
2023-11-04T11:09:53.745Z,98380.69
2023-11-04T11:12:24.032Z,98379.77
2023-11-04T11:14:17.613Z,98378.23
2023-11-04T11:16:11.364Z,98382.59
2023-11-04T11:18:05.910Z,98378.69
2023-11-04T11:19:59.224Z,98371.94
2023-11-04T11:21:52.533Z,98371.02
2023-11-04T11:23:45.730Z,98366.52
2023-11-04T11:25:40.807Z,98365.30
2023-11-04T11:27:34.099Z,98362.77
2023-11-04T11:29:27.973Z,98359.21
2023-11-04T11:31:29.835Z,98362.58
2023-11-04T11:33:31.093Z,98357.64
2023-11-04T11:35:58.717Z,98358.47
2023-11-04T11:37:52.484Z,98356.46
2023-11-04T11:39:45.555Z,98357.64
2023-11-04T11:41:39.542Z,98357.92
2023-11-04T11:43:33.787Z,98355.91
2023-11-04T11:45:28.733Z,98355.20
2023-11-04T11:47:23.493Z,98357.29
2023-11-04T11:49:16.552Z,98365.66
2023-11-04T11:51:12.823Z,98363.92
2023-11-04T11:53:06.202Z,98369.77
2023-11-04T11:55:00.125Z,98368.74
2023-11-04T11:56:54.039Z,98364.38
2023-11-04T11:58:49.143Z,98368.11
2023-11-04T12:00:42.067Z,98361.14
2023-11-04T12:02:35.070Z,98361.98
2023-11-04T12:04:28.271Z,98361.33
2023-11-04T12:06:21.522Z,98359.80
2023-11-04T12:08:15.218Z,98359.59
2023-11-04T12:10:09.846Z,98357.89
2023-11-04T12:12:03.007Z,98358.66
2023-11-04T12:13:56.791Z,98358.66
2023-11-04T12:15:50.829Z,98358.39
2023-11-04T12:17:44.077Z,98359.33
2023-11-04T12:19:37.512Z,98361.77
2023-11-04T12:21:31.177Z,98356.27
2023-11-04T12:23:29.039Z,98354.20
2023-11-04T12:25:23.010Z,98353.55
2023-11-04T12:27:16.030Z,98352.58
2023-11-04T12:29:10.929Z,98349.05
2023-11-04T12:31:05.497Z,98350.67
2023-11-04T12:33:00.004Z,98347.54
2023-11-04T12:34:53.691Z,98345.89
2023-11-04T12:36:46.755Z,98343.77
2023-11-04T12:38:45.900Z,98340.27
2023-11-04T12:40:41.762Z,98336.95
2023-11-04T12:42:36.064Z,98333.83
2023-11-04T12:44:31.211Z,98334.17
2023-11-04T12:46:29.974Z,98330.61
2023-11-04T12:48:23.325Z,98325.14
2023-11-04T12:50:16.526Z,98318.70
2023-11-04T12:52:09.702Z,98319.39
2023-11-04T12:54:02.732Z,98314.65
2023-11-04T12:55:55.788Z,98311.44
2023-11-04T12:57:49.502Z,98308.98
2023-11-04T12:59:43.224Z,98302.23
2023-11-04T13:01:36.286Z,98305.98
2023-11-04T13:03:29.518Z,98302.62
2023-11-04T13:05:23.824Z,98301.77
2023-11-04T13:07:17.570Z,98303.29
2023-11-04T13:09:11.139Z,98306.96
2023-11-04T13:11:04.511Z,98307.95
2023-11-04T13:12:57.647Z,98304.21
2023-11-04T13:14:50.692Z,98308.69
2023-11-04T13:16:43.745Z,98309.66
2023-11-04T13:18:36.991Z,98312.23
2023-11-04T13:20:30.581Z,98313.34
2023-11-04T13:22:23.610Z,98314.27
2023-11-04T13:24:16.867Z,98315.21
2023-11-04T13:26:09.919Z,98314.02
2023-11-04T13:28:03.309Z,98310.94
2023-11-04T13:29:57.350Z,98309.58
2023-11-04T13:31:50.411Z,98307.58
2023-11-04T13:33:43.576Z,98315.88
2023-11-04T13:35:37.119Z,98316.39
2023-11-04T13:37:30.422Z,98313.67
2023-11-04T13:39:23.464Z,98316.59
2023-11-04T13:41:18.374Z,98317.35
2023-11-04T13:43:12.149Z,98320.85
2023-11-04T13:45:08.174Z,98313.73
2023-11-04T13:47:01.565Z,98313.51
2023-11-04T13:48:54.712Z,98311.04
2023-11-04T13:50:47.709Z,98308.27
2023-11-04T13:52:41.942Z,98301.95
2023-11-04T13:54:34.931Z,98298.77
2023-11-04T13:56:28.162Z,98298.23
2023-11-04T13:58:21.987Z,98297.20
2023-11-04T14:00:15.630Z,98301.73
2023-11-04T14:02:08.626Z,98301.19
2023-11-04T14:04:02.944Z,98297.59
2023-11-04T14:05:56.512Z,98295.09
2023-11-04T14:07:49.820Z,98293.80
2023-11-04T14:09:43.009Z,98290.52
2023-11-04T14:11:36.033Z,98290.63
2023-11-04T14:13:29.194Z,98285.18
2023-11-04T14:15:22.359Z,98284.21
2023-11-04T14:17:15.494Z,98282.25
2023-11-04T14:19:08.600Z,98283.08
2023-11-04T14:21:07.331Z,98283.78
2023-11-04T14:23:00.991Z,98290.10
2023-11-04T14:24:55.443Z,98286.08
2023-11-04T14:26:48.529Z,98289.89
2023-11-04T14:28:41.586Z,98288.54
2023-11-04T14:30:34.739Z,98291.52
2023-11-04T14:32:27.720Z,98289.89
2023-11-04T14:34:20.861Z,98288.20
2023-11-04T14:36:14.097Z,98289.17
2023-11-04T14:38:07.246Z,98290.04
2023-11-04T14:40:01.923Z,98286.06
2023-11-04T14:41:55.035Z,98282.20
2023-11-04T14:43:48.028Z,98278.00
2023-11-04T14:45:41.171Z,98276.52
2023-11-04T14:47:34.377Z,98279.45
2023-11-04T14:49:27.411Z,98284.50
2023-11-04T14:51:24.368Z,98292.44
2023-11-04T14:53:18.505Z,98294.92
2023-11-04T14:55:11.655Z,98293.88
2023-11-04T14:57:04.917Z,98292.56
2023-11-04T14:58:58.075Z,98288.13
2023-11-04T15:00:51.235Z,98288.36
2023-11-04T15:02:44.308Z,98284.60
2023-11-04T15:04:37.365Z,98282.52
2023-11-04T15:06:30.478Z,98278.52
2023-11-04T15:08:23.536Z,98277.84
2023-11-04T15:10:17.090Z,98276.14
2023-11-04T15:12:13.824Z,98275.04
2023-11-04T15:14:09.762Z,98272.84
2023-11-04T15:16:05.084Z,98267.83
2023-11-04T15:17:58.113Z,98265.19
2023-11-04T15:19:51.764Z,98261.95
2023-11-04T15:21:44.838Z,98262.59
2023-11-04T15:23:37.823Z,98262.40
2023-11-04T15:25:31.120Z,98262.42
2023-11-04T15:27:24.172Z,98258.59
2023-11-04T15:29:17.222Z,98261.11
2023-11-04T15:31:10.311Z,98256.84
2023-11-04T15:33:04.801Z,98249.48
2023-11-04T15:34:58.011Z,98250.38
2023-11-04T15:36:51.093Z,98244.94
2023-11-04T15:38:44.978Z,98244.58
2023-11-04T15:40:40.761Z,98244.65
2023-11-04T15:42:34.514Z,98242.07
2023-11-04T15:44:42.074Z,98237.80
2023-11-04T15:46:41.864Z,98233.95
2023-11-04T15:48:35.454Z,98229.09
2023-11-04T15:50:28.525Z,98227.59
2023-11-04T15:52:22.304Z,98226.90
2023-11-04T15:54:15.860Z,98223.41
2023-11-04T15:56:09.728Z,98222.85
2023-11-04T15:58:04.556Z,98223.20
2023-11-04T15:59:58.595Z,98222.97
2023-11-04T16:01:51.753Z,98227.77
2023-11-04T16:03:45.816Z,98223.59
2023-11-04T16:05:39.123Z,98225.26
2023-11-04T16:07:32.685Z,98224.31
2023-11-04T16:09:25.690Z,98224.41
2023-11-04T16:11:18.840Z,98223.16
2023-11-04T16:13:12.037Z,98225.55
2023-11-04T16:15:08.005Z,98224.33
2023-11-04T16:17:01.064Z,98223.40
2023-11-04T16:18:54.384Z,98226.33
2023-11-04T16:20:47.887Z,98227.44
2023-11-04T16:22:41.017Z,98221.84
2023-11-04T16:24:34.606Z,98218.19
2023-11-04T16:26:27.660Z,98214.43
2023-11-04T16:28:23.586Z,98211.91
2023-11-04T16:30:16.772Z,98210.06
2023-11-04T16:32:10.189Z,98209.05
2023-11-04T16:34:04.944Z,98209.95
2023-11-04T16:35:59.088Z,98204.56
2023-11-04T16:37:52.035Z,98205.67
2023-11-04T16:39:45.916Z,98203.43
2023-11-04T16:41:38.911Z,98198.64
2023-11-04T16:43:31.865Z,98200.59
2023-11-04T16:45:25.336Z,98195.27
2023-11-04T16:47:18.818Z,98197.21
2023-11-04T16:49:13.646Z,98192.73
2023-11-04T16:51:09.779Z,98187.38
2023-11-04T16:53:06.037Z,98179.93
2023-11-04T16:55:00.169Z,98179.24
2023-11-04T16:56:53.555Z,98175.21
2023-11-04T16:58:49.370Z,98175.48
2023-11-04T17:00:42.423Z,98171.39
2023-11-04T17:02:35.424Z,98167.52
2023-11-04T17:04:28.552Z,98166.30
2023-11-04T17:06:21.729Z,98164.16
2023-11-04T17:08:15.444Z,98165.28
2023-11-04T17:10:09.293Z,98164.29
2023-11-04T17:12:02.438Z,98165.79
2023-11-04T17:13:55.417Z,98171.07
2023-11-04T17:15:48.486Z,98168.89
2023-11-04T17:17:44.475Z,98166.59
2023-11-04T17:19:40.889Z,98167.77
2023-11-04T17:21:36.571Z,98168.67
2023-11-04T17:23:30.201Z,98163.57
2023-11-04T17:25:23.529Z,98161.97
2023-11-04T17:27:16.914Z,98155.40
2023-11-04T17:29:10.173Z,98153.05
2023-11-04T17:31:03.971Z,98148.94
2023-11-04T17:32:57.190Z,98148.56
2023-11-04T17:34:51.642Z,98143.41
2023-11-04T17:36:45.364Z,98136.42
2023-11-04T17:38:38.794Z,98135.88
2023-11-04T17:40:31.956Z,98128.40
2023-11-04T17:42:25.105Z,98128.13
2023-11-04T17:44:18.053Z,98129.16
2023-11-04T17:46:11.128Z,98126.75
2023-11-04T17:48:04.462Z,98124.04
2023-11-04T17:49:57.452Z,98120.77
2023-11-04T17:51:50.488Z,98114.80
2023-11-04T17:53:44.018Z,98113.10
2023-11-04T17:55:37.074Z,98115.59
2023-11-04T17:57:30.530Z,98110.95
2023-11-04T17:59:23.685Z,98106.92
2023-11-04T18:01:16.802Z,98102.36
2023-11-04T18:03:10.332Z,98099.52
2023-11-04T18:05:04.418Z,98096.94
2023-11-04T18:06:57.542Z,98095.19
2023-11-04T18:08:50.570Z,98090.83
2023-11-04T18:10:44.264Z,98088.77
2023-11-04T18:12:37.290Z,98087.48
2023-11-04T18:14:30.243Z,98086.13
2023-11-04T18:16:24.606Z,98080.38
2023-11-04T18:18:17.969Z,98075.89
2023-11-04T18:20:12.617Z,98075.99
2023-11-04T18:22:05.852Z,98073.59
2023-11-04T18:23:59.121Z,98069.02
2023-11-04T18:25:52.230Z,98065.86
2023-11-04T18:27:55.994Z,98063.71
2023-11-04T18:29:52.567Z,98049.55
2023-11-04T18:31:46.073Z,98045.06
2023-11-04T18:33:39.582Z,98044.10
2023-11-04T18:35:34.238Z,98034.98
2023-11-04T18:37:27.323Z,98027.14
2023-11-04T18:39:20.497Z,98027.17
2023-11-04T18:41:17.769Z,98018.67
2023-11-04T18:43:11.609Z,98013.94
2023-11-04T18:45:07.383Z,98014.03
2023-11-04T18:47:04.919Z,98011.90
2023-11-04T18:49:00.408Z,98013.61
2023-11-04T18:50:54.151Z,98007.35
2023-11-04T18:52:47.193Z,98005.24
2023-11-04T18:54:41.218Z,98002.52
2023-11-04T18:56:35.145Z,98009.40
2023-11-04T18:58:28.633Z,98011.13
2023-11-04T19:00:22.790Z,98014.03
2023-11-04T19:02:15.866Z,98008.66
2023-11-04T19:04:10.894Z,98001.88
2023-11-04T19:06:04.640Z,98008.30
2023-11-04T19:08:02.567Z,98009.25
2023-11-04T19:09:57.386Z,98007.34
2023-11-04T19:11:53.334Z,98012.58
2023-11-04T19:13:46.542Z,98012.95
2023-11-04T19:15:40.126Z,98014.20
2023-11-04T19:17:35.441Z,98022.44
2023-11-04T19:19:28.439Z,98035.73
2023-11-04T19:21:22.900Z,98040.55
2023-11-04T19:23:19.087Z,98043.61
2023-11-04T19:25:18.400Z,98043.44
2023-11-04T19:27:12.923Z,98037.41
2023-11-04T19:29:05.922Z,98037.77
2023-11-04T19:30:59.876Z,98044.02
2023-11-04T19:32:54.235Z,98040.38
2023-11-04T19:34:49.493Z,98028.39
2023-11-04T19:36:44.731Z,98027.77
2023-11-04T19:38:40.369Z,98031.86
2023-11-04T19:40:37.202Z,98029.27
2023-11-04T19:42:30.201Z,98022.70
2023-11-04T19:44:24.659Z,98016.68
2023-11-04T19:46:19.523Z,98017.11
2023-11-04T19:48:13.232Z,98012.72
2023-11-04T19:50:09.097Z,98006.05
2023-11-04T19:52:03.946Z,97990.78
2023-11-04T19:53:57.854Z,97978.70
2023-11-04T19:55:50.899Z,97972.30
2023-11-04T19:57:47.502Z,97968.47
2023-11-04T19:59:42.945Z,97965.41
2023-11-04T20:01:37.952Z,97956.83
2023-11-04T20:03:31.178Z,97953.74
2023-11-04T20:05:24.591Z,97952.33
2023-11-04T20:07:17.781Z,97945.66
2023-11-04T20:09:11.268Z,97932.95
2023-11-04T20:11:07.618Z,97919.13
2023-11-04T20:13:02.011Z,97914.90
2023-11-04T20:14:54.970Z,97908.95
2023-11-04T20:16:48.083Z,97914.52
2023-11-04T20:18:41.373Z,97918.46
2023-11-04T20:20:35.099Z,97926.98
2023-11-04T20:22:28.401Z,97934.01
2023-11-04T20:24:22.081Z,97934.00
2023-11-04T20:26:17.322Z,97934.11
2023-11-04T20:28:12.826Z,97948.52
2023-11-04T20:30:06.652Z,97950.72
2023-11-04T20:31:59.755Z,97954.50
2023-11-04T20:33:52.967Z,97954.27
2023-11-04T20:35:46.933Z,97956.86
2023-11-04T20:37:42.435Z,97956.91
2023-11-04T20:39:36.011Z,97963.16
2023-11-04T20:41:29.004Z,97966.65
2023-11-04T20:43:23.329Z,97965.96
2023-11-04T20:45:18.179Z,97955.77
2023-11-04T20:47:12.195Z,97955.46
2023-11-04T20:49:05.572Z,97959.29
2023-11-04T20:50:58.886Z,97956.00
2023-11-04T20:52:52.526Z,97956.30
2023-11-04T20:54:45.883Z,97958.45
2023-11-04T20:56:40.061Z,97957.13
2023-11-04T20:58:33.111Z,97947.79
2023-11-04T21:00:26.623Z,97944.70
2023-11-04T21:02:19.668Z,97946.77
2023-11-04T21:04:12.964Z,97953.56
2023-11-04T21:06:07.611Z,97946.20
2023-11-04T21:08:00.744Z,97946.88
2023-11-04T21:09:53.858Z,97947.84
2023-11-04T21:11:47.272Z,97949.92
2023-11-04T21:13:40.280Z,97950.15
2023-11-04T21:15:33.328Z,97952.67
2023-11-04T21:17:26.448Z,97957.01
2023-11-04T21:19:19.668Z,97942.94
2023-11-04T21:21:14.059Z,97946.77
2023-11-04T21:23:08.657Z,97950.08
2023-11-04T21:25:01.867Z,97954.41
2023-11-04T21:26:55.086Z,97955.81
2023-11-04T21:28:49.821Z,97945.56
2023-11-04T21:30:43.060Z,97940.59
2023-11-04T21:32:36.363Z,97940.48
2023-11-04T21:34:30.065Z,97937.57
2023-11-04T21:36:23.247Z,97936.48
2023-11-04T21:38:16.284Z,97934.74
2023-11-04T21:40:11.683Z,97934.86
2023-11-04T21:42:10.651Z,97935.12
2023-11-04T21:44:03.939Z,97935.19
2023-11-04T21:45:57.227Z,97930.38
2023-11-04T21:47:50.494Z,97924.50
2023-11-04T21:49:43.865Z,97926.56
2023-11-04T21:51:36.909Z,97923.50
2023-11-04T21:53:30.112Z,97921.56
2023-11-04T21:55:24.644Z,97915.30
2023-11-04T21:57:17.756Z,97902.98
2023-11-04T21:59:10.803Z,97897.14
2023-11-04T22:01:06.950Z,97898.27
2023-11-04T22:02:59.984Z,97896.23
2023-11-04T22:04:53.282Z,97889.73
2023-11-04T22:06:46.388Z,97889.74
2023-11-04T22:08:39.432Z,97887.32
2023-11-04T22:10:32.542Z,97882.81
2023-11-04T22:12:25.744Z,97876.67
2023-11-04T22:14:18.927Z,97881.86
2023-11-04T22:16:13.968Z,97877.22
2023-11-04T22:18:07.117Z,97877.67
2023-11-04T22:20:00.911Z,97875.72
2023-11-04T22:21:56.531Z,97869.39